sensor_id;sensor_type;location;lat;lon;timestamp;P1;durP1;ratioP1;P2;durP2;ratioP2
79261;SDS011;68699;48.220;16.358;2024-03-29T00:00:52;0.87;;;0.30;;
79261;SDS011;68699;48.220;16.358;2024-03-29T00:03:18;0.60;;;0.30;;
79261;SDS011;68699;48.220;16.358;2024-03-29T00:05:44;0.30;;;0.30;;
79261;SDS011;68699;48.220;16.358;2024-03-29T00:08:10;0.43;;;0.43;;
79261;SDS011;68699;48.220;16.358;2024-03-29T00:10:36;0.20;;;0.20;;
79261;SDS011;68699;48.220;16.358;2024-03-29T00:13:03;0.37;;;0.20;;
79261;SDS011;68699;48.220;16.358;2024-03-29T00:15:33;0.57;;;0.40;;
79261;SDS011;68699;48.220;16.358;2024-03-29T00:17:59;0.53;;;0.40;;
79261;SDS011;68699;48.220;16.358;2024-03-29T00:20:25;0.30;;;0.30;;
79261;SDS011;68699;48.220;16.358;2024-03-29T00:22:53;0.80;;;0.43;;
79261;SDS011;68699;48.220;16.358;2024-03-29T00:25:19;0.60;;;0.30;;
79261;SDS011;68699;48.220;16.358;2024-03-29T00:27:45;0.67;;;0.30;;
79261;SDS011;68699;48.220;16.358;2024-03-29T00:30:13;1.60;;;0.30;;
79261;SDS011;68699;48.220;16.358;2024-03-29T00:32:39;0.50;;;0.30;;
79261;SDS011;68699;48.220;16.358;2024-03-29T00:35:05;0.83;;;0.40;;
79261;SDS011;68699;48.220;16.358;2024-03-29T00:37:31;1.27;;;0.40;;
79261;SDS011;68699;48.220;16.358;2024-03-29T00:39:57;0.30;;;0.30;;
79261;SDS011;68699;48.220;16.358;2024-03-29T00:42:23;0.40;;;0.40;;
79261;SDS011;68699;48.220;16.358;2024-03-29T00:44:50;0.67;;;0.40;;
79261;SDS011;68699;48.220;16.358;2024-03-29T00:47:16;0.43;;;0.43;;
79261;SDS011;68699;48.220;16.358;2024-03-29T00:49:42;0.30;;;0.30;;
79261;SDS011;68699;48.220;16.358;2024-03-29T00:52:08;0.27;;;0.27;;
79261;SDS011;68699;48.220;16.358;2024-03-29T00:54:34;0.47;;;0.37;;
79261;SDS011;68699;48.220;16.358;2024-03-29T00:57:00;0.90;;;0.40;;
79261;SDS011;68699;48.220;16.358;2024-03-29T00:59:26;0.50;;;0.50;;
79261;SDS011;68699;48.220;16.358;2024-03-29T01:01:52;0.30;;;0.30;;
79261;SDS011;68699;48.220;16.358;2024-03-29T01:04:18;0.43;;;0.40;;
79261;SDS011;68699;48.220;16.358;2024-03-29T01:06:44;1.00;;;0.40;;
79261;SDS011;68699;48.220;16.358;2024-03-29T01:09:10;0.50;;;0.40;;
79261;SDS011;68699;48.220;16.358;2024-03-29T01:11:36;0.73;;;0.70;;
79261;SDS011;68699;48.220;16.358;2024-03-29T01:14:03;0.80;;;0.80;;
79261;SDS011;68699;48.220;16.358;2024-03-29T01:16:29;0.73;;;0.73;;
79261;SDS011;68699;48.220;16.358;2024-03-29T01:18:57;0.83;;;0.57;;
79261;SDS011;68699;48.220;16.358;2024-03-29T01:21:23;1.40;;;0.80;;
79261;SDS011;68699;48.220;16.358;2024-03-29T01:23:49;0.60;;;0.60;;
79261;SDS011;68699;48.220;16.358;2024-03-29T01:26:15;0.50;;;0.50;;
79261;SDS011;68699;48.220;16.358;2024-03-29T01:28:42;2.53;;;0.70;;
79261;SDS011;68699;48.220;16.358;2024-03-29T01:31:08;0.70;;;0.70;;
79261;SDS011;68699;48.220;16.358;2024-03-29T01:33:34;0.73;;;0.50;;
79261;SDS011;68699;48.220;16.358;2024-03-29T01:36:05;0.47;;;0.43;;
79261;SDS011;68699;48.220;16.358;2024-03-29T01:38:31;1.23;;;0.50;;
79261;SDS011;68699;48.220;16.358;2024-03-29T01:40:57;0.53;;;0.53;;
79261;SDS011;68699;48.220;16.358;2024-03-29T01:43:24;0.83;;;0.70;;
79261;SDS011;68699;48.220;16.358;2024-03-29T01:45:51;1.40;;;0.60;;
79261;SDS011;68699;48.220;16.358;2024-03-29T01:48:18;1.00;;;0.60;;
79261;SDS011;68699;48.220;16.358;2024-03-29T01:50:44;0.33;;;0.33;;
79261;SDS011;68699;48.220;16.358;2024-03-29T01:53:11;0.60;;;0.60;;
79261;SDS011;68699;48.220;16.358;2024-03-29T01:55:37;0.60;;;0.60;;
79261;SDS011;68699;48.220;16.358;2024-03-29T01:58:07;0.63;;;0.50;;
79261;SDS011;68699;48.220;16.358;2024-03-29T02:00:34;0.40;;;0.40;;
79261;SDS011;68699;48.220;16.358;2024-03-29T02:03:02;0.47;;;0.43;;
79261;SDS011;68699;48.220;16.358;2024-03-29T02:05:29;0.40;;;0.40;;
79261;SDS011;68699;48.220;16.358;2024-03-29T02:07:56;0.70;;;0.50;;
79261;SDS011;68699;48.220;16.358;2024-03-29T02:10:22;0.80;;;0.60;;
79261;SDS011;68699;48.220;16.358;2024-03-29T02:12:48;0.40;;;0.40;;
79261;SDS011;68699;48.220;16.358;2024-03-29T02:15:14;0.60;;;0.47;;
79261;SDS011;68699;48.220;16.358;2024-03-29T02:17:44;0.60;;;0.60;;
79261;SDS011;68699;48.220;16.358;2024-03-29T02:20:10;0.60;;;0.60;;
79261;SDS011;68699;48.220;16.358;2024-03-29T02:22:41;0.80;;;0.57;;
79261;SDS011;68699;48.220;16.358;2024-03-29T02:25:11;0.47;;;0.47;;
79261;SDS011;68699;48.220;16.358;2024-03-29T02:27:38;1.47;;;0.70;;
79261;SDS011;68699;48.220;16.358;2024-03-29T02:30:04;0.60;;;0.60;;
79261;SDS011;68699;48.220;16.358;2024-03-29T02:32:30;0.50;;;0.50;;
79261;SDS011;68699;48.220;16.358;2024-03-29T02:34:56;0.97;;;0.80;;
79261;SDS011;68699;48.220;16.358;2024-03-29T02:37:22;1.83;;;0.70;;
79261;SDS011;68699;48.220;16.358;2024-03-29T02:39:48;1.20;;;0.70;;
79261;SDS011;68699;48.220;16.358;2024-03-29T02:42:14;1.90;;;0.77;;
79261;SDS011;68699;48.220;16.358;2024-03-29T02:44:40;0.87;;;0.80;;
79261;SDS011;68699;48.220;16.358;2024-03-29T02:47:06;0.70;;;0.70;;
79261;SDS011;68699;48.220;16.358;2024-03-29T02:49:32;1.20;;;0.70;;
79261;SDS011;68699;48.220;16.358;2024-03-29T02:51:58;0.73;;;0.70;;
79261;SDS011;68699;48.220;16.358;2024-03-29T02:54:24;0.70;;;0.60;;
79261;SDS011;68699;48.220;16.358;2024-03-29T02:56:50;0.60;;;0.60;;
79261;SDS011;68699;48.220;16.358;2024-03-29T02:59:16;1.63;;;0.80;;
79261;SDS011;68699;48.220;16.358;2024-03-29T03:01:42;0.60;;;0.60;;
79261;SDS011;68699;48.220;16.358;2024-03-29T03:04:08;0.70;;;0.70;;
79261;SDS011;68699;48.220;16.358;2024-03-29T03:06:34;0.37;;;0.37;;
79261;SDS011;68699;48.220;16.358;2024-03-29T03:09:00;1.30;;;0.67;;
79261;SDS011;68699;48.220;16.358;2024-03-29T03:11:45;1.07;;;0.73;;
79261;SDS011;68699;48.220;16.358;2024-03-29T03:14:11;0.60;;;0.60;;
79261;SDS011;68699;48.220;16.358;2024-03-29T03:16:37;0.60;;;0.60;;
79261;SDS011;68699;48.220;16.358;2024-03-29T03:19:03;0.70;;;0.60;;
79261;SDS011;68699;48.220;16.358;2024-03-29T03:21:29;1.03;;;0.73;;
79261;SDS011;68699;48.220;16.358;2024-03-29T03:23:55;1.10;;;0.80;;
79261;SDS011;68699;48.220;16.358;2024-03-29T03:26:21;0.50;;;0.50;;
79261;SDS011;68699;48.220;16.358;2024-03-29T03:28:47;1.90;;;0.70;;
79261;SDS011;68699;48.220;16.358;2024-03-29T03:31:13;0.80;;;0.80;;
79261;SDS011;68699;48.220;16.358;2024-03-29T03:33:39;1.13;;;0.80;;
79261;SDS011;68699;48.220;16.358;2024-03-29T03:36:05;1.10;;;0.60;;
79261;SDS011;68699;48.220;16.358;2024-03-29T03:38:32;0.90;;;0.70;;
79261;SDS011;68699;48.220;16.358;2024-03-29T03:40:59;0.50;;;0.50;;
79261;SDS011;68699;48.220;16.358;2024-03-29T03:43:25;1.43;;;1.03;;
79261;SDS011;68699;48.220;16.358;2024-03-29T03:45:52;1.13;;;0.90;;
79261;SDS011;68699;48.220;16.358;2024-03-29T03:48:18;0.70;;;0.70;;
79261;SDS011;68699;48.220;16.358;2024-03-29T03:50:44;1.00;;;0.90;;
79261;SDS011;68699;48.220;16.358;2024-03-29T03:53:10;0.60;;;0.60;;
79261;SDS011;68699;48.220;16.358;2024-03-29T03:55:37;0.63;;;0.63;;
79261;SDS011;68699;48.220;16.358;2024-03-29T03:58:03;1.33;;;1.13;;
79261;SDS011;68699;48.220;16.358;2024-03-29T04:00:29;1.13;;;0.80;;
79261;SDS011;68699;48.220;16.358;2024-03-29T04:02:55;0.70;;;0.70;;
79261;SDS011;68699;48.220;16.358;2024-03-29T04:05:22;1.53;;;0.70;;
79261;SDS011;68699;48.220;16.358;2024-03-29T04:07:48;1.43;;;0.70;;
79261;SDS011;68699;48.220;16.358;2024-03-29T04:10:14;0.87;;;0.87;;
79261;SDS011;68699;48.220;16.358;2024-03-29T04:12:40;1.00;;;0.80;;
79261;SDS011;68699;48.220;16.358;2024-03-29T04:15:07;1.27;;;0.93;;
79261;SDS011;68699;48.220;16.358;2024-03-29T04:17:33;0.80;;;0.80;;
79261;SDS011;68699;48.220;16.358;2024-03-29T04:19:59;0.70;;;0.70;;
79261;SDS011;68699;48.220;16.358;2024-03-29T04:22:28;0.70;;;0.70;;
79261;SDS011;68699;48.220;16.358;2024-03-29T04:24:54;1.10;;;1.00;;
79261;SDS011;68699;48.220;16.358;2024-03-29T04:27:20;0.87;;;0.80;;
79261;SDS011;68699;48.220;16.358;2024-03-29T04:29:46;1.23;;;0.80;;
79261;SDS011;68699;48.220;16.358;2024-03-29T04:32:12;1.07;;;0.80;;
79261;SDS011;68699;48.220;16.358;2024-03-29T04:34:38;1.83;;;0.97;;
79261;SDS011;68699;48.220;16.358;2024-03-29T04:37:04;0.80;;;0.80;;
79261;SDS011;68699;48.220;16.358;2024-03-29T04:39:34;0.70;;;0.70;;
79261;SDS011;68699;48.220;16.358;2024-03-29T04:42:00;2.20;;;1.10;;
79261;SDS011;68699;48.220;16.358;2024-03-29T04:44:27;1.10;;;1.00;;
79261;SDS011;68699;48.220;16.358;2024-03-29T04:46:53;1.47;;;1.27;;
79261;SDS011;68699;48.220;16.358;2024-03-29T04:49:19;1.83;;;1.30;;
79261;SDS011;68699;48.220;16.358;2024-03-29T04:51:50;1.37;;;1.20;;
79261;SDS011;68699;48.220;16.358;2024-03-29T04:54:17;1.30;;;1.00;;
79261;SDS011;68699;48.220;16.358;2024-03-29T04:56:43;1.27;;;1.17;;
79261;SDS011;68699;48.220;16.358;2024-03-29T04:59:09;1.00;;;1.00;;
79261;SDS011;68699;48.220;16.358;2024-03-29T05:01:35;1.83;;;1.30;;
79261;SDS011;68699;48.220;16.358;2024-03-29T05:04:01;2.90;;;1.30;;
79261;SDS011;68699;48.220;16.358;2024-03-29T05:06:29;1.30;;;1.20;;
79261;SDS011;68699;48.220;16.358;2024-03-29T05:08:55;2.53;;;1.00;;
79261;SDS011;68699;48.220;16.358;2024-03-29T05:11:21;1.93;;;1.30;;
79261;SDS011;68699;48.220;16.358;2024-03-29T05:13:47;1.47;;;1.07;;
79261;SDS011;68699;48.220;16.358;2024-03-29T05:16:13;1.50;;;1.10;;
79261;SDS011;68699;48.220;16.358;2024-03-29T05:18:42;1.20;;;1.10;;
79261;SDS011;68699;48.220;16.358;2024-03-29T05:21:08;2.07;;;1.20;;
79261;SDS011;68699;48.220;16.358;2024-03-29T05:23:34;1.07;;;1.07;;
79261;SDS011;68699;48.220;16.358;2024-03-29T05:26:00;2.23;;;1.83;;
79261;SDS011;68699;48.220;16.358;2024-03-29T05:28:26;1.90;;;1.40;;
79261;SDS011;68699;48.220;16.358;2024-03-29T05:30:52;2.60;;;1.70;;
79261;SDS011;68699;48.220;16.358;2024-03-29T05:33:18;1.43;;;1.33;;
79261;SDS011;68699;48.220;16.358;2024-03-29T05:35:44;3.47;;;1.97;;
79261;SDS011;68699;48.220;16.358;2024-03-29T05:38:11;9.17;;;3.00;;
79261;SDS011;68699;48.220;16.358;2024-03-29T05:40:37;3.30;;;1.43;;
79261;SDS011;68699;48.220;16.358;2024-03-29T05:43:04;2.40;;;2.20;;
79261;SDS011;68699;48.220;16.358;2024-03-29T05:45:30;3.47;;;2.43;;
79261;SDS011;68699;48.220;16.358;2024-03-29T05:47:57;11.40;;;2.30;;
79261;SDS011;68699;48.220;16.358;2024-03-29T05:50:24;1.90;;;1.67;;
79261;SDS011;68699;48.220;16.358;2024-03-29T05:52:53;4.40;;;1.90;;
79261;SDS011;68699;48.220;16.358;2024-03-29T05:55:19;3.43;;;1.70;;
79261;SDS011;68699;48.220;16.358;2024-03-29T05:57:45;2.23;;;1.37;;
79261;SDS011;68699;48.220;16.358;2024-03-29T06:00:13;1.60;;;1.23;;
79261;SDS011;68699;48.220;16.358;2024-03-29T06:02:39;2.10;;;1.60;;
79261;SDS011;68699;48.220;16.358;2024-03-29T06:05:05;5.17;;;1.70;;
79261;SDS011;68699;48.220;16.358;2024-03-29T06:07:32;2.80;;;1.43;;
79261;SDS011;68699;48.220;16.358;2024-03-29T06:09:58;1.40;;;1.30;;
79261;SDS011;68699;48.220;16.358;2024-03-29T06:12:32;2.03;;;1.60;;
79261;SDS011;68699;48.220;16.358;2024-03-29T06:14:59;1.30;;;1.10;;
79261;SDS011;68699;48.220;16.358;2024-03-29T06:17:44;1.37;;;1.00;;
79261;SDS011;68699;48.220;16.358;2024-03-29T06:20:11;2.80;;;0.90;;
79261;SDS011;68699;48.220;16.358;2024-03-29T06:22:37;2.33;;;1.50;;
79261;SDS011;68699;48.220;16.358;2024-03-29T06:25:03;1.63;;;1.10;;
79261;SDS011;68699;48.220;16.358;2024-03-29T06:27:32;1.47;;;1.00;;
79261;SDS011;68699;48.220;16.358;2024-03-29T06:29:59;1.20;;;0.70;;
79261;SDS011;68699;48.220;16.358;2024-03-29T06:32:25;2.00;;;0.80;;
79261;SDS011;68699;48.220;16.358;2024-03-29T06:34:51;1.13;;;0.80;;
79261;SDS011;68699;48.220;16.358;2024-03-29T06:37:17;0.80;;;0.80;;
79261;SDS011;68699;48.220;16.358;2024-03-29T06:39:46;0.97;;;0.73;;
79261;SDS011;68699;48.220;16.358;2024-03-29T06:42:12;1.67;;;0.80;;
79261;SDS011;68699;48.220;16.358;2024-03-29T06:44:39;0.70;;;0.70;;
79261;SDS011;68699;48.220;16.358;2024-03-29T06:47:05;2.07;;;0.70;;
79261;SDS011;68699;48.220;16.358;2024-03-29T06:49:31;0.67;;;0.67;;
79261;SDS011;68699;48.220;16.358;2024-03-29T06:52:00;1.50;;;0.90;;
79261;SDS011;68699;48.220;16.358;2024-03-29T06:54:26;1.10;;;1.00;;
79261;SDS011;68699;48.220;16.358;2024-03-29T06:56:53;1.50;;;0.67;;
79261;SDS011;68699;48.220;16.358;2024-03-29T06:59:19;1.37;;;0.70;;
79261;SDS011;68699;48.220;16.358;2024-03-29T07:01:45;1.30;;;0.90;;
79261;SDS011;68699;48.220;16.358;2024-03-29T07:04:20;1.57;;;0.80;;
79261;SDS011;68699;48.220;16.358;2024-03-29T07:06:46;0.90;;;0.83;;
79261;SDS011;68699;48.220;16.358;2024-03-29T07:09:15;0.70;;;0.70;;
79261;SDS011;68699;48.220;16.358;2024-03-29T07:11:41;1.37;;;0.70;;
79261;SDS011;68699;48.220;16.358;2024-03-29T07:14:07;0.90;;;0.60;;
79261;SDS011;68699;48.220;16.358;2024-03-29T07:16:33;1.20;;;0.77;;
79261;SDS011;68699;48.220;16.358;2024-03-29T07:18:59;1.63;;;0.80;;
79261;SDS011;68699;48.220;16.358;2024-03-29T07:21:25;2.40;;;0.80;;
79261;SDS011;68699;48.220;16.358;2024-03-29T07:23:51;1.13;;;0.77;;
79261;SDS011;68699;48.220;16.358;2024-03-29T07:26:17;0.90;;;0.90;;
79261;SDS011;68699;48.220;16.358;2024-03-29T07:28:44;1.23;;;0.83;;
79261;SDS011;68699;48.220;16.358;2024-03-29T07:31:10;0.97;;;0.77;;
79261;SDS011;68699;48.220;16.358;2024-03-29T07:33:36;0.80;;;0.80;;
79261;SDS011;68699;48.220;16.358;2024-03-29T07:36:02;1.13;;;0.80;;
79261;SDS011;68699;48.220;16.358;2024-03-29T07:38:30;0.90;;;0.80;;
79261;SDS011;68699;48.220;16.358;2024-03-29T07:40:56;2.23;;;0.80;;
79261;SDS011;68699;48.220;16.358;2024-03-29T07:43:22;1.00;;;0.80;;
79261;SDS011;68699;48.220;16.358;2024-03-29T07:45:48;0.80;;;0.77;;
79261;SDS011;68699;48.220;16.358;2024-03-29T07:48:15;3.17;;;0.90;;
79261;SDS011;68699;48.220;16.358;2024-03-29T07:50:45;2.70;;;0.93;;
79261;SDS011;68699;48.220;16.358;2024-03-29T07:53:11;1.17;;;0.80;;
79261;SDS011;68699;48.220;16.358;2024-03-29T07:55:38;1.37;;;0.70;;
79261;SDS011;68699;48.220;16.358;2024-03-29T07:58:06;1.00;;;0.80;;
79261;SDS011;68699;48.220;16.358;2024-03-29T08:00:34;1.70;;;0.80;;
79261;SDS011;68699;48.220;16.358;2024-03-29T08:03:00;0.80;;;0.80;;
79261;SDS011;68699;48.220;16.358;2024-03-29T08:05:29;0.70;;;0.70;;
79261;SDS011;68699;48.220;16.358;2024-03-29T08:07:55;1.80;;;0.83;;
79261;SDS011;68699;48.220;16.358;2024-03-29T08:10:21;1.70;;;0.60;;
79261;SDS011;68699;48.220;16.358;2024-03-29T08:12:47;1.77;;;0.77;;
79261;SDS011;68699;48.220;16.358;2024-03-29T08:15:13;1.53;;;0.80;;
79261;SDS011;68699;48.220;16.358;2024-03-29T08:17:39;0.97;;;0.87;;
79261;SDS011;68699;48.220;16.358;2024-03-29T08:20:05;1.77;;;0.73;;
79261;SDS011;68699;48.220;16.358;2024-03-29T08:22:32;1.13;;;0.70;;
79261;SDS011;68699;48.220;16.358;2024-03-29T08:24:58;1.33;;;0.90;;
79261;SDS011;68699;48.220;16.358;2024-03-29T08:27:25;1.97;;;0.97;;
79261;SDS011;68699;48.220;16.358;2024-03-29T08:29:51;2.17;;;1.03;;
79261;SDS011;68699;48.220;16.358;2024-03-29T08:32:17;3.20;;;0.70;;
79261;SDS011;68699;48.220;16.358;2024-03-29T08:34:43;1.57;;;1.00;;
79261;SDS011;68699;48.220;16.358;2024-03-29T08:37:10;0.90;;;0.83;;
79261;SDS011;68699;48.220;16.358;2024-03-29T08:39:36;2.00;;;0.90;;
79261;SDS011;68699;48.220;16.358;2024-03-29T08:42:03;1.70;;;0.93;;
79261;SDS011;68699;48.220;16.358;2024-03-29T08:44:33;2.00;;;0.90;;
79261;SDS011;68699;48.220;16.358;2024-03-29T08:47:00;1.60;;;0.87;;
79261;SDS011;68699;48.220;16.358;2024-03-29T08:49:27;1.50;;;0.77;;
79261;SDS011;68699;48.220;16.358;2024-03-29T08:51:53;0.70;;;0.70;;
79261;SDS011;68699;48.220;16.358;2024-03-29T08:54:20;2.10;;;1.10;;
79261;SDS011;68699;48.220;16.358;2024-03-29T08:56:46;1.53;;;0.70;;
79261;SDS011;68699;48.220;16.358;2024-03-29T08:59:12;2.67;;;1.03;;
79261;SDS011;68699;48.220;16.358;2024-03-29T09:01:44;1.83;;;0.80;;
79261;SDS011;68699;48.220;16.358;2024-03-29T09:04:11;3.37;;;1.10;;
79261;SDS011;68699;48.220;16.358;2024-03-29T09:06:37;2.43;;;1.13;;
79261;SDS011;68699;48.220;16.358;2024-03-29T09:09:06;1.20;;;0.90;;
79261;SDS011;68699;48.220;16.358;2024-03-29T09:11:33;2.07;;;0.80;;
79261;SDS011;68699;48.220;16.358;2024-03-29T09:13:59;1.10;;;1.00;;
79261;SDS011;68699;48.220;16.358;2024-03-29T09:16:26;1.73;;;0.90;;
79261;SDS011;68699;48.220;16.358;2024-03-29T09:18:54;1.63;;;1.17;;
79261;SDS011;68699;48.220;16.358;2024-03-29T09:21:20;4.17;;;1.07;;
79261;SDS011;68699;48.220;16.358;2024-03-29T09:23:46;1.10;;;0.90;;
79261;SDS011;68699;48.220;16.358;2024-03-29T09:26:14;3.00;;;1.07;;
79261;SDS011;68699;48.220;16.358;2024-03-29T09:28:40;3.53;;;1.23;;
79261;SDS011;68699;48.220;16.358;2024-03-29T09:31:07;1.63;;;0.97;;
79261;SDS011;68699;48.220;16.358;2024-03-29T09:33:33;2.87;;;1.27;;
79261;SDS011;68699;48.220;16.358;2024-03-29T09:35:59;1.90;;;1.00;;
79261;SDS011;68699;48.220;16.358;2024-03-29T09:38:26;1.87;;;1.13;;
79261;SDS011;68699;48.220;16.358;2024-03-29T09:41:02;3.07;;;1.00;;
79261;SDS011;68699;48.220;16.358;2024-03-29T09:43:29;1.77;;;1.00;;
79261;SDS011;68699;48.220;16.358;2024-03-29T09:45:56;1.67;;;1.00;;
79261;SDS011;68699;48.220;16.358;2024-03-29T09:48:22;2.70;;;1.00;;
79261;SDS011;68699;48.220;16.358;2024-03-29T09:50:49;3.40;;;0.90;;
79261;SDS011;68699;48.220;16.358;2024-03-29T09:53:16;2.10;;;1.20;;
79261;SDS011;68699;48.220;16.358;2024-03-29T09:55:43;1.97;;;1.10;;
79261;SDS011;68699;48.220;16.358;2024-03-29T09:58:10;2.83;;;1.30;;
79261;SDS011;68699;48.220;16.358;2024-03-29T10:00:36;5.63;;;1.10;;
79261;SDS011;68699;48.220;16.358;2024-03-29T10:03:02;2.90;;;1.10;;
79261;SDS011;68699;48.220;16.358;2024-03-29T10:05:29;2.37;;;1.40;;
79261;SDS011;68699;48.220;16.358;2024-03-29T10:07:55;2.60;;;1.40;;
79261;SDS011;68699;48.220;16.358;2024-03-29T10:10:21;3.20;;;1.20;;
79261;SDS011;68699;48.220;16.358;2024-03-29T10:12:48;1.87;;;1.23;;
79261;SDS011;68699;48.220;16.358;2024-03-29T10:15:14;1.60;;;0.80;;
79261;SDS011;68699;48.220;16.358;2024-03-29T10:17:45;2.23;;;1.13;;
79261;SDS011;68699;48.220;16.358;2024-03-29T10:20:11;3.33;;;1.70;;
79261;SDS011;68699;48.220;16.358;2024-03-29T10:22:41;2.70;;;1.40;;
79261;SDS011;68699;48.220;16.358;2024-03-29T10:25:08;2.37;;;1.70;;
79261;SDS011;68699;48.220;16.358;2024-03-29T10:27:34;2.43;;;1.40;;
79261;SDS011;68699;48.220;16.358;2024-03-29T10:30:00;3.63;;;1.60;;
79261;SDS011;68699;48.220;16.358;2024-03-29T10:32:28;1.93;;;1.57;;
79261;SDS011;68699;48.220;16.358;2024-03-29T10:34:54;2.30;;;1.23;;
79261;SDS011;68699;48.220;16.358;2024-03-29T10:37:21;3.07;;;1.33;;
79261;SDS011;68699;48.220;16.358;2024-03-29T10:39:54;2.83;;;1.20;;
79261;SDS011;68699;48.220;16.358;2024-03-29T10:42:22;3.13;;;1.10;;
79261;SDS011;68699;48.220;16.358;2024-03-29T10:44:51;3.07;;;1.17;;
79261;SDS011;68699;48.220;16.358;2024-03-29T10:47:20;2.43;;;1.20;;
79261;SDS011;68699;48.220;16.358;2024-03-29T10:49:49;6.43;;;1.60;;
79261;SDS011;68699;48.220;16.358;2024-03-29T10:52:18;4.37;;;1.50;;
79261;SDS011;68699;48.220;16.358;2024-03-29T10:54:44;2.33;;;1.03;;
79261;SDS011;68699;48.220;16.358;2024-03-29T10:57:12;1.30;;;1.00;;
79261;SDS011;68699;48.220;16.358;2024-03-29T10:59:48;2.73;;;1.27;;
79261;SDS011;68699;48.220;16.358;2024-03-29T11:02:23;1.80;;;1.00;;
79261;SDS011;68699;48.220;16.358;2024-03-29T11:04:55;2.10;;;1.20;;
79261;SDS011;68699;48.220;16.358;2024-03-29T11:07:22;1.37;;;1.10;;
79261;SDS011;68699;48.220;16.358;2024-03-29T11:09:50;1.90;;;1.03;;
79261;SDS011;68699;48.220;16.358;2024-03-29T11:12:18;2.73;;;1.33;;
79261;SDS011;68699;48.220;16.358;2024-03-29T11:14:49;1.80;;;1.00;;
79261;SDS011;68699;48.220;16.358;2024-03-29T11:17:20;3.37;;;1.30;;
79261;SDS011;68699;48.220;16.358;2024-03-29T11:19:46;1.43;;;1.10;;
79261;SDS011;68699;48.220;16.358;2024-03-29T11:22:12;2.43;;;1.10;;
79261;SDS011;68699;48.220;16.358;2024-03-29T11:24:39;2.67;;;1.07;;
79261;SDS011;68699;48.220;16.358;2024-03-29T11:27:07;1.37;;;1.10;;
79261;SDS011;68699;48.220;16.358;2024-03-29T11:29:33;1.67;;;1.10;;
79261;SDS011;68699;48.220;16.358;2024-03-29T11:32:04;2.30;;;1.10;;
79261;SDS011;68699;48.220;16.358;2024-03-29T11:34:30;1.33;;;1.00;;
79261;SDS011;68699;48.220;16.358;2024-03-29T11:37:07;2.10;;;1.03;;
79261;SDS011;68699;48.220;16.358;2024-03-29T11:39:33;2.70;;;1.13;;
79261;SDS011;68699;48.220;16.358;2024-03-29T11:42:01;1.80;;;1.03;;
79261;SDS011;68699;48.220;16.358;2024-03-29T11:44:27;1.80;;;1.20;;
79261;SDS011;68699;48.220;16.358;2024-03-29T11:46:57;2.17;;;1.13;;
79261;SDS011;68699;48.220;16.358;2024-03-29T11:49:24;5.90;;;1.43;;
79261;SDS011;68699;48.220;16.358;2024-03-29T11:51:50;1.77;;;1.20;;
79261;SDS011;68699;48.220;16.358;2024-03-29T11:54:16;3.20;;;1.43;;
79261;SDS011;68699;48.220;16.358;2024-03-29T11:56:42;1.60;;;1.10;;
79261;SDS011;68699;48.220;16.358;2024-03-29T11:59:08;3.37;;;1.37;;
79261;SDS011;68699;48.220;16.358;2024-03-29T12:01:35;1.30;;;0.80;;
79261;SDS011;68699;48.220;16.358;2024-03-29T12:04:04;1.97;;;1.10;;
79261;SDS011;68699;48.220;16.358;2024-03-29T12:06:31;2.83;;;1.20;;
79261;SDS011;68699;48.220;16.358;2024-03-29T12:08:57;2.10;;;1.10;;
79261;SDS011;68699;48.220;16.358;2024-03-29T12:11:24;1.93;;;1.07;;
79261;SDS011;68699;48.220;16.358;2024-03-29T12:13:54;1.47;;;1.10;;
79261;SDS011;68699;48.220;16.358;2024-03-29T12:16:20;1.97;;;1.33;;
79261;SDS011;68699;48.220;16.358;2024-03-29T12:18:49;1.30;;;1.20;;
79261;SDS011;68699;48.220;16.358;2024-03-29T12:21:15;2.13;;;1.20;;
79261;SDS011;68699;48.220;16.358;2024-03-29T12:23:46;3.10;;;1.30;;
79261;SDS011;68699;48.220;16.358;2024-03-29T12:26:15;2.93;;;1.20;;
79261;SDS011;68699;48.220;16.358;2024-03-29T12:28:50;1.83;;;1.30;;
79261;SDS011;68699;48.220;16.358;2024-03-29T12:31:16;3.10;;;1.40;;
79261;SDS011;68699;48.220;16.358;2024-03-29T12:33:50;2.67;;;1.20;;
79261;SDS011;68699;48.220;16.358;2024-03-29T12:36:16;1.30;;;1.17;;
79261;SDS011;68699;48.220;16.358;2024-03-29T12:38:45;1.50;;;1.20;;
79261;SDS011;68699;48.220;16.358;2024-03-29T12:41:17;2.50;;;1.40;;
79261;SDS011;68699;48.220;16.358;2024-03-29T12:43:43;2.23;;;1.30;;
79261;SDS011;68699;48.220;16.358;2024-03-29T12:46:10;1.80;;;1.20;;
79261;SDS011;68699;48.220;16.358;2024-03-29T12:48:37;2.50;;;1.20;;
79261;SDS011;68699;48.220;16.358;2024-03-29T12:51:04;1.87;;;1.10;;
79261;SDS011;68699;48.220;16.358;2024-03-29T12:53:32;0.90;;;0.90;;
79261;SDS011;68699;48.220;16.358;2024-03-29T12:55:58;2.43;;;1.23;;
79261;SDS011;68699;48.220;16.358;2024-03-29T12:58:25;5.87;;;1.40;;
79261;SDS011;68699;48.220;16.358;2024-03-29T13:00:51;2.77;;;1.30;;
79261;SDS011;68699;48.220;16.358;2024-03-29T13:03:17;1.10;;;1.00;;
79261;SDS011;68699;48.220;16.358;2024-03-29T13:05:43;2.60;;;1.10;;
79261;SDS011;68699;48.220;16.358;2024-03-29T13:08:13;1.20;;;1.10;;
79261;SDS011;68699;48.220;16.358;2024-03-29T13:10:43;2.30;;;0.93;;
79261;SDS011;68699;48.220;16.358;2024-03-29T13:13:09;3.03;;;1.00;;
79261;SDS011;68699;48.220;16.358;2024-03-29T13:15:36;1.17;;;0.80;;
79261;SDS011;68699;48.220;16.358;2024-03-29T13:18:02;1.77;;;0.93;;
79261;SDS011;68699;48.220;16.358;2024-03-29T13:20:29;1.87;;;1.00;;
79261;SDS011;68699;48.220;16.358;2024-03-29T13:22:55;1.67;;;0.90;;
79261;SDS011;68699;48.220;16.358;2024-03-29T13:25:23;2.73;;;1.23;;
79261;SDS011;68699;48.220;16.358;2024-03-29T13:27:50;2.00;;;0.93;;
79261;SDS011;68699;48.220;16.358;2024-03-29T13:30:23;1.43;;;1.03;;
79261;SDS011;68699;48.220;16.358;2024-03-29T13:32:50;1.63;;;1.07;;
79261;SDS011;68699;48.220;16.358;2024-03-29T13:35:16;2.00;;;1.30;;
79261;SDS011;68699;48.220;16.358;2024-03-29T13:37:44;1.67;;;1.07;;
79261;SDS011;68699;48.220;16.358;2024-03-29T13:40:13;1.50;;;1.20;;
79261;SDS011;68699;48.220;16.358;2024-03-29T13:42:40;3.90;;;1.47;;
79261;SDS011;68699;48.220;16.358;2024-03-29T13:45:06;1.60;;;1.17;;
79261;SDS011;68699;48.220;16.358;2024-03-29T13:47:36;2.73;;;1.33;;
79261;SDS011;68699;48.220;16.358;2024-03-29T13:50:05;1.27;;;0.90;;
79261;SDS011;68699;48.220;16.358;2024-03-29T13:52:31;2.43;;;1.20;;
79261;SDS011;68699;48.220;16.358;2024-03-29T13:54:57;1.07;;;0.93;;
79261;SDS011;68699;48.220;16.358;2024-03-29T13:57:23;1.73;;;1.20;;
79261;SDS011;68699;48.220;16.358;2024-03-29T13:59:50;2.40;;;1.20;;
79261;SDS011;68699;48.220;16.358;2024-03-29T14:02:16;1.97;;;1.20;;
79261;SDS011;68699;48.220;16.358;2024-03-29T14:04:43;2.40;;;1.40;;
79261;SDS011;68699;48.220;16.358;2024-03-29T14:07:10;1.27;;;1.00;;
79261;SDS011;68699;48.220;16.358;2024-03-29T14:09:37;1.30;;;1.00;;
79261;SDS011;68699;48.220;16.358;2024-03-29T14:12:03;2.07;;;1.30;;
79261;SDS011;68699;48.220;16.358;2024-03-29T14:14:30;1.03;;;0.97;;
79261;SDS011;68699;48.220;16.358;2024-03-29T14:16:56;1.73;;;1.30;;
79261;SDS011;68699;48.220;16.358;2024-03-29T14:19:22;1.10;;;1.00;;
79261;SDS011;68699;48.220;16.358;2024-03-29T14:21:49;1.10;;;0.90;;
79261;SDS011;68699;48.220;16.358;2024-03-29T14:24:15;1.10;;;0.70;;
79261;SDS011;68699;48.220;16.358;2024-03-29T14:26:44;1.53;;;0.90;;
79261;SDS011;68699;48.220;16.358;2024-03-29T14:29:10;1.10;;;1.00;;
79261;SDS011;68699;48.220;16.358;2024-03-29T14:31:40;1.43;;;1.00;;